Terminal Aerodrome Forecast
Issued by NWS

Home | Current Version | Previous Version | Text Only | Print | Product List | Glossary Off
Versions: 1 2 3 4 5 6 7 8 9 10 11 12 13 14 15 16 17 18 19

000
FTUS43 KFGF 171730
TAFBJI
TAF
KBJI 171730Z 1718/1818 28012KT P6SM BKN025
     FM172000 26012KT P6SM BKN035
     FM180000 24008KT P6SM FEW200
     FM181100 15009KT P6SM BKN090=

USA.gov is the U.S. government's official web portal to all federal, state and local government web resources and services.